Time,TemperatureF,DewpointF,PressureIn,WindDirection,WindDirectionDegrees,WindSpeedMPH,WindSpeedGustMPH,Humidity,HourlyPrecipIn,Conditions,Clouds,dailyrainin,SoftwareType,DateUTC
2013-03-22 00:00:00,17.9,9.8,29.69,NW,324,7.0,7.0,70,0.00,,,0.00,Wunderground v.1.15,2013-03-22 04:00:00,
2013-03-22 00:10:00,17.8,9.7,29.70,NW,315,6.0,6.0,70,0.00,,,0.00,Wunderground v.1.15,2013-03-22 04:10:00,
2013-03-22 00:20:00,17.6,9.8,29.70,NW,323,5.0,19.0,71,0.00,,,0.00,Wunderground v.1.15,2013-03-22 04:20:00,
2013-03-22 00:30:00,17.4,9.6,29.70,North,355,5.0,5.0,71,0.00,,,0.00,Wunderground v.1.15,2013-03-22 04:30:00,
2013-03-22 00:40:00,17.3,9.5,29.71,NW,317,3.0,3.0,71,0.00,,,0.00,Wunderground v.1.15,2013-03-22 04:40:00,
2013-03-22 00:50:00,17.4,9.6,29.71,NW,315,4.0,19.0,71,0.00,,,0.00,Wunderground v.1.15,2013-03-22 04:50:00,
2013-03-22 01:00:00,17.3,9.5,29.71,NNW,328,4.0,19.0,71,0.00,,,0.00,Wunderground v.1.15,2013-03-22 05:00:00,
2013-03-22 01:10:00,17.1,9.6,29.71,NW,323,3.0,3.0,72,0.00,,,0.00,Wunderground v.1.15,2013-03-22 05:10:00,
2013-03-22 01:20:00,16.8,9.3,29.71,NW,313,2.0,19.0,72,0.00,,,0.00,Wunderground v.1.15,2013-03-22 05:20:00,
2013-03-22 01:30:00,16.8,9.3,29.71,NW,324,4.0,19.0,72,0.00,,,0.00,Wunderground v.1.15,2013-03-22 05:30:00,
2013-03-22 01:40:00,16.8,9.6,29.71,NW,313,6.0,19.0,73,0.00,,,0.00,Wunderground v.1.15,2013-03-22 05:40:00,
2013-03-22 01:50:00,16.8,9.6,29.70,NNW,342,6.0,19.0,73,0.00,,,0.00,Wunderground v.1.15,2013-03-22 05:50:00,
2013-03-22 02:00:00,16.7,9.8,29.70,NNW,327,8.0,8.0,74,0.00,,,0.00,Wunderground v.1.15,2013-03-22 06:00:00,
2013-03-22 02:10:00,16.8,9.9,29.69,NW,323,9.0,9.0,74,0.00,,,0.00,Wunderground v.1.15,2013-03-22 06:10:00,
2013-03-22 02:20:00,17.0,9.8,29.69,NNW,332,10.0,19.0,73,0.00,,,0.00,Wunderground v.1.15,2013-03-22 06:20:00,
2013-03-22 02:30:00,17.0,9.8,29.70,NW,315,10.0,19.0,73,0.00,,,0.00,Wunderground v.1.15,2013-03-22 06:30:00,
2013-03-22 02:40:00,16.9,9.7,29.71,NW,313,7.0,19.0,73,0.00,,,0.00,Wunderground v.1.15,2013-03-22 06:40:00,
2013-03-22 02:50:00,16.7,9.5,29.71,NW,313,7.0,19.0,73,0.00,,,0.00,Wunderground v.1.15,2013-03-22 06:50:00,
2013-03-22 03:00:00,16.7,9.5,29.70,NW,319,7.0,19.0,73,0.00,,,0.00,Wunderground v.1.15,2013-03-22 07:00:00,
2013-03-22 03:10:00,16.6,9.4,29.70,NW,318,7.0,19.0,73,0.00,,,0.00,Wunderground v.1.15,2013-03-22 07:10:00,
2013-03-22 03:20:00,16.5,9.4,29.70,WNW,297,6.0,19.0,73,0.00,,,0.00,Wunderground v.1.15,2013-03-22 07:20:00,
2013-03-22 03:30:00,16.5,9.7,29.70,NW,321,8.0,8.0,74,0.00,,,0.00,Wunderground v.1.15,2013-03-22 07:30:00,
2013-03-22 03:40:00,16.3,9.5,29.69,NW,321,7.0,19.0,74,0.00,,,0.00,Wunderground v.1.15,2013-03-22 07:40:00,
2013-03-22 03:50:00,16.2,9.4,29.69,NW,310,7.0,19.0,74,0.00,,,0.00,Wunderground v.1.15,2013-03-22 07:50:00,
2013-03-22 04:00:00,16.3,9.5,29.69,NW,313,8.0,19.0,74,0.00,,,0.00,Wunderground v.1.15,2013-03-22 08:00:00,
2013-03-22 04:10:00,16.3,9.8,29.69,NW,305,8.0,19.0,75,0.00,,,0.00,Wunderground v.1.15,2013-03-22 08:10:00,
2013-03-22 04:20:00,16.3,9.5,29.70,NW,313,8.0,19.0,74,0.00,,,0.00,Wunderground v.1.15,2013-03-22 08:20:00,
2013-03-22 04:30:00,16.3,9.5,29.70,NW,306,7.0,19.0,74,0.00,,,0.00,Wunderground v.1.15,2013-03-22 08:30:00,
2013-03-22 04:40:00,16.3,9.5,29.69,NNW,329,7.0,19.0,74,0.00,,,0.00,Wunderground v.1.15,2013-03-22 08:40:00,
2013-03-22 04:50:00,16.3,9.5,29.70,NW,315,7.0,19.0,74,0.00,,,0.00,Wunderground v.1.15,2013-03-22 08:50:00,
2013-03-22 05:00:00,16.2,9.4,29.70,WNW,284,5.0,5.0,74,0.00,,,0.00,Wunderground v.1.15,2013-03-22 09:00:00,
2013-03-22 05:10:00,16.2,9.4,29.71,WNW,286,4.0,4.0,74,0.00,,,0.00,Wunderground v.1.15,2013-03-22 09:10:00,
2013-03-22 05:20:00,16.0,9.2,29.71,WNW,286,3.0,19.0,74,0.00,,,0.00,Wunderground v.1.15,2013-03-22 09:20:00,
2013-03-22 05:30:00,15.9,9.1,29.72,WNW,290,3.0,19.0,74,0.00,,,0.00,Wunderground v.1.15,2013-03-22 09:30:00,
2013-03-22 05:40:00,16.0,8.9,29.72,NW,315,4.0,4.0,73,0.00,,,0.00,Wunderground v.1.15,2013-03-22 09:40:00,
2013-03-22 05:50:00,16.1,9.0,29.72,NW,312,4.0,19.0,73,0.00,,,0.00,Wunderground v.1.15,2013-03-22 09:50:00,
2013-03-22 06:00:00,15.8,9.0,29.72,WNW,292,5.0,19.0,74,0.00,,,0.00,Wunderground v.1.15,2013-03-22 10:00:00,
2013-03-22 06:10:00,15.8,9.0,29.73,WNW,290,6.0,19.0,74,0.00,,,0.00,Wunderground v.1.15,2013-03-22 10:10:00,
2013-03-22 06:20:00,15.6,9.1,29.73,WNW,285,6.0,19.0,75,0.00,,,0.00,Wunderground v.1.15,2013-03-22 10:20:00,
2013-03-22 06:30:00,15.7,9.2,29.74,West,277,8.0,19.0,75,0.00,,,0.00,Wunderground v.1.15,2013-03-22 10:30:00,
2013-03-22 06:40:00,15.6,9.1,29.74,WNW,282,8.0,19.0,75,0.00,,,0.00,Wunderground v.1.15,2013-03-22 10:40:00,
2013-03-22 06:50:00,15.7,9.2,29.75,WNW,284,8.0,8.0,75,0.00,,,0.00,Wunderground v.1.15,2013-03-22 10:50:00,
2013-03-22 07:00:00,15.5,9.0,29.75,NW,317,5.0,5.0,75,0.00,,,0.00,Wunderground v.1.15,2013-03-22 11:00:00,
2013-03-22 07:10:00,15.6,9.1,29.75,NW,319,7.0,7.0,75,0.00,,,0.00,Wunderground v.1.15,2013-03-22 11:10:00,
2013-03-22 07:20:00,15.6,9.1,29.75,NW,313,9.0,9.0,75,0.00,,,0.00,Wunderground v.1.15,2013-03-22 11:20:00,
2013-03-22 07:30:00,15.6,9.1,29.76,NW,317,8.0,19.0,75,0.00,,,0.00,Wunderground v.1.15,2013-03-22 11:30:00,
2013-03-22 07:40:00,16.1,9.3,29.77,NW,323,8.0,19.0,74,0.00,,,0.00,Wunderground v.1.15,2013-03-22 11:40:00,
2013-03-22 07:50:00,16.3,9.5,29.78,WNW,292,7.0,7.0,74,0.00,,,0.00,Wunderground v.1.15,2013-03-22 11:50:00,
2013-03-22 08:00:00,17.0,9.8,29.78,WNW,284,7.0,19.0,73,0.00,,,0.00,Wunderground v.1.15,2013-03-22 12:00:00,
2013-03-22 08:10:00,17.4,9.9,29.78,WNW,302,8.0,8.0,72,0.00,,,0.00,Wunderground v.1.15,2013-03-22 12:10:00,
2013-03-22 08:20:00,18.1,10.6,29.78,NW,317,8.0,8.0,72,0.00,,,0.00,Wunderground v.1.15,2013-03-22 12:20:00,
2013-03-22 08:30:00,18.5,10.7,29.79,NW,309,8.0,19.0,71,0.00,,,0.00,Wunderground v.1.15,2013-03-22 12:30:00,
2013-03-22 08:40:00,19.0,11.1,29.79,WNW,303,7.0,7.0,71,0.00,,,0.00,Wunderground v.1.15,2013-03-22 12:40:00,
2013-03-22 08:50:00,19.7,11.8,29.79,North,355,6.0,19.0,71,0.00,,,0.00,Wunderground v.1.15,2013-03-22 12:50:00,
2013-03-22 09:00:00,20.1,11.2,29.79,NW,306,9.0,9.0,68,0.00,,,0.00,Wunderground v.1.15,2013-03-22 13:00:00,
2013-03-22 09:10:00,20.8,11.6,29.79,NW,306,7.0,19.0,67,0.00,,,0.00,Wunderground v.1.15,2013-03-22 13:10:00,
2013-03-22 09:20:00,21.6,12.0,29.80,WNW,293,6.0,19.0,66,0.00,,,0.00,Wunderground v.1.15,2013-03-22 13:20:00,
2013-03-22 09:30:00,22.0,12.4,29.80,WNW,288,6.0,19.0,66,0.00,,,0.00,Wunderground v.1.15,2013-03-22 13:30:00,
2013-03-22 09:39:00,22.8,12.1,29.79,NNW,327,6.0,19.0,63,0.00,,,0.00,Wunderground v.1.15,2013-03-22 13:39:00,
2013-03-22 09:50:00,23.5,12.0,29.80,WNW,288,6.0,19.0,61,0.00,,,0.00,Wunderground v.1.15,2013-03-22 13:50:00,
2013-03-22 10:00:00,24.3,12.0,29.80,WNW,285,6.0,19.0,59,0.00,,,0.00,Wunderground v.1.15,2013-03-22 14:00:00,
2013-03-22 10:10:00,25.1,12.8,29.80,WNW,289,6.0,19.0,59,0.00,,,0.00,Wunderground v.1.15,2013-03-22 14:10:00,
2013-03-22 10:20:00,26.1,12.1,29.80,NW,322,6.0,6.0,55,0.00,,,0.00,Wunderground v.1.15,2013-03-22 14:20:00,
2013-03-22 10:30:00,26.2,11.8,29.80,NW,304,6.0,19.0,54,0.00,,,0.00,Wunderground v.1.15,2013-03-22 14:30:00,
2013-03-22 10:40:00,27.2,13.1,29.79,WNW,288,5.0,19.0,55,0.00,,,0.00,Wunderground v.1.15,2013-03-22 14:40:00,
2013-03-22 10:50:00,27.8,12.9,29.79,North,355,5.0,5.0,53,0.00,,,0.00,Wunderground v.1.15,2013-03-22 14:50:00,
2013-03-22 11:00:00,28.4,12.6,29.80,NW,317,4.0,19.0,51,0.00,,,0.00,Wunderground v.1.15,2013-03-22 15:00:00,
2013-03-22 11:10:00,28.9,13.0,29.80,NNW,348,4.0,19.0,51,0.00,,,0.00,Wunderground v.1.15,2013-03-22 15:10:00,
2013-03-22 11:20:00,29.7,13.3,29.80,North,349,5.0,5.0,50,0.00,,,0.00,Wunderground v.1.15,2013-03-22 15:20:00,
2013-03-22 11:30:00,30.1,13.2,29.80,West,269,5.0,19.0,49,0.00,,,0.00,Wunderground v.1.15,2013-03-22 15:30:00,
2013-03-22 11:40:00,31.0,11.6,29.80,West,279,9.0,9.0,44,0.00,,,0.00,Wunderground v.1.15,2013-03-22 15:40:00,
2013-03-22 11:50:00,31.7,11.7,29.79,WSW,244,6.0,6.0,43,0.00,,,0.00,Wunderground v.1.15,2013-03-22 15:50:00,
2013-03-22 12:00:00,32.2,11.6,29.79,WNW,293,7.0,7.0,42,0.00,,,0.00,Wunderground v.1.15,2013-03-22 16:00:00,
2013-03-22 12:10:00,33.0,11.8,29.80,WNW,284,6.0,19.0,41,0.00,,,0.00,Wunderground v.1.15,2013-03-22 16:10:00,
2013-03-22 12:20:00,33.3,11.0,29.79,NW,311,8.0,8.0,39,0.00,,,0.00,Wunderground v.1.15,2013-03-22 16:20:00,
2013-03-22 12:30:00,33.5,11.7,29.79,West,271,8.0,8.0,40,0.00,,,0.00,Wunderground v.1.15,2013-03-22 16:30:00,
2013-03-22 12:40:00,34.3,11.9,29.79,WNW,288,7.0,19.0,39,0.00,,,0.00,Wunderground v.1.15,2013-03-22 16:40:00,
2013-03-22 12:50:00,34.5,11.5,29.78,WNW,302,6.0,6.0,38,0.00,,,0.00,Wunderground v.1.15,2013-03-22 16:50:00,
2013-03-22 13:00:00,35.8,13.8,29.77,West,275,7.0,7.0,40,0.00,,,0.00,Wunderground v.1.15,2013-03-22 17:00:00,
2013-03-22 13:10:00,36.5,11.4,29.77,West,261,7.0,19.0,35,0.00,,,0.00,Wunderground v.1.15,2013-03-22 17:10:00,
2013-03-22 13:20:00,37.0,10.5,29.77,WNW,292,7.0,7.0,33,0.00,,,0.00,Wunderground v.1.15,2013-03-22 17:20:00,
2013-03-22 13:30:00,37.7,10.4,29.76,NW,312,7.0,19.0,32,0.00,,,0.00,Wunderground v.1.15,2013-03-22 17:30:00,
2013-03-22 13:39:00,37.7,9.0,29.76,West,267,9.0,9.0,30,0.00,,,0.00,Wunderground v.1.15,2013-03-22 17:39:00,
2013-03-22 13:50:00,38.5,11.1,29.76,West,265,10.0,19.0,32,0.00,,,0.00,Wunderground v.1.15,2013-03-22 17:50:00,
2013-03-22 14:00:00,38.6,9.0,29.75,NW,325,9.0,19.0,29,0.00,,,0.00,Wunderground v.1.15,2013-03-22 18:00:00,
2013-03-22 14:10:00,39.5,11.3,29.75,NW,313,7.0,19.0,31,0.00,,,0.00,Wunderground v.1.15,2013-03-22 18:10:00,
2013-03-22 14:20:00,39.7,11.5,29.74,WSW,257,8.0,19.0,31,0.00,,,0.00,Wunderground v.1.15,2013-03-22 18:20:00,
2013-03-22 14:30:00,40.9,11.8,29.74,West,276,9.0,19.0,30,0.00,,,0.00,Wunderground v.1.15,2013-03-22 18:30:00,
2013-03-22 14:40:00,40.6,13.0,29.74,NW,309,8.0,8.0,32,0.00,,,0.00,Wunderground v.1.15,2013-03-22 18:40:00,
2013-03-22 14:50:00,41.3,13.6,29.73,West,261,7.0,7.0,32,0.00,,,0.00,Wunderground v.1.15,2013-03-22 18:50:00,
2013-03-22 14:59:00,41.9,14.1,29.74,NW,317,6.0,19.0,32,0.00,,,0.00,Wunderground v.1.15,2013-03-22 18:59:00,
2013-03-22 15:10:00,42.9,13.5,29.73,West,259,7.0,19.0,30,0.00,,,0.00,Wunderground v.1.15,2013-03-22 19:10:00,
2013-03-22 15:20:00,42.8,13.5,29.73,SW,215,7.0,19.0,30,0.00,,,0.00,Wunderground v.1.15,2013-03-22 19:20:00,
2013-03-22 15:30:00,43.2,13.8,29.73,WNW,300,6.0,19.0,30,0.00,,,0.00,Wunderground v.1.15,2013-03-22 19:30:00,
2013-03-22 15:40:00,44.6,13.5,29.72,WNW,287,6.0,19.0,28,0.00,,,0.00,Wunderground v.1.15,2013-03-22 19:40:00,
2013-03-22 15:50:00,45.1,17.0,29.73,WSW,253,10.0,10.0,32,0.00,,,0.00,Wunderground v.1.15,2013-03-22 19:50:00,
2013-03-22 16:00:00,44.0,12.1,29.73,SW,234,6.0,19.0,27,0.00,,,0.00,Wunderground v.1.15,2013-03-22 20:00:00,
2013-03-22 16:10:00,44.3,12.4,29.73,West,263,10.0,19.0,27,0.00,,,0.00,Wunderground v.1.15,2013-03-22 20:10:00,
2013-03-22 16:20:00,43.7,10.1,29.72,NW,325,10.0,10.0,25,0.00,,,0.00,Wunderground v.1.15,2013-03-22 20:20:00,
2013-03-22 16:30:00,44.4,12.5,29.72,West,271,11.0,11.0,27,0.00,,,0.00,Wunderground v.1.15,2013-03-22 20:30:00,
2013-03-22 16:40:00,44.9,15.3,29.72,SW,223,9.0,19.0,30,0.00,,,0.00,Wunderground v.1.15,2013-03-22 20:40:00,
2013-03-22 16:50:00,45.2,10.5,29.72,WNW,294,11.0,11.0,24,0.00,,,0.00,Wunderground v.1.15,2013-03-22 20:50:00,
2013-03-22 17:00:00,45.0,11.2,29.72,WNW,286,9.0,9.0,25,0.00,,,0.00,Wunderground v.1.15,2013-03-22 21:00:00,
2013-03-22 17:10:00,45.3,10.6,29.72,West,275,12.0,12.0,24,0.00,,,0.00,Wunderground v.1.15,2013-03-22 21:10:00,
2013-03-22 17:20:00,44.9,8.3,29.72,WNW,301,9.0,19.0,22,0.00,,,0.00,Wunderground v.1.15,2013-03-22 21:20:00,
2013-03-22 17:30:00,43.4,8.9,29.72,WNW,290,7.0,19.0,24,0.00,,,0.00,Wunderground v.1.15,2013-03-22 21:30:00,
2013-03-22 17:40:00,42.9,8.5,29.72,West,277,7.0,19.0,24,0.00,,,0.00,Wunderground v.1.15,2013-03-22 21:40:00,
2013-03-22 17:50:00,42.9,9.4,29.72,NW,315,7.0,7.0,25,0.00,,,0.00,Wunderground v.1.15,2013-03-22 21:50:00,
2013-03-22 18:00:00,42.9,9.4,29.72,WNW,287,6.0,19.0,25,0.00,,,0.00,Wunderground v.1.15,2013-03-22 22:00:00,
2013-03-22 18:10:00,43.0,11.2,29.72,West,273,6.0,19.0,27,0.00,,,0.00,Wunderground v.1.15,2013-03-22 22:10:00,
2013-03-22 18:20:00,43.1,10.5,29.72,WNW,287,6.0,19.0,26,0.00,,,0.00,Wunderground v.1.15,2013-03-22 22:20:00,
2013-03-22 18:30:00,43.0,11.2,29.73,West,274,7.0,7.0,27,0.00,,,0.00,Wunderground v.1.15,2013-03-22 22:30:00,
2013-03-22 18:40:00,42.9,10.3,29.72,West,279,6.0,19.0,26,0.00,,,0.00,Wunderground v.1.15,2013-03-22 22:40:00,
2013-03-22 18:50:00,42.6,10.1,29.72,West,273,7.0,7.0,26,0.00,,,0.00,Wunderground v.1.15,2013-03-22 22:50:00,
2013-03-22 19:00:00,42.3,11.5,29.72,West,276,6.0,19.0,28,0.00,,,0.00,Wunderground v.1.15,2013-03-22 23:00:00,
2013-03-22 19:10:00,41.6,14.6,29.73,West,274,3.0,19.0,33,0.00,,,0.00,Wunderground v.1.15,2013-03-22 23:10:00,
2013-03-22 19:20:00,40.7,17.0,29.73,WSW,250,5.0,19.0,38,0.00,,,0.00,Wunderground v.1.15,2013-03-22 23:20:00,
2013-03-22 19:30:00,40.0,17.6,29.73,WSW,251,4.0,19.0,40,0.00,,,0.00,Wunderground v.1.15,2013-03-22 23:30:00,
2013-03-22 19:40:00,39.4,17.0,29.73,WSW,254,6.0,19.0,40,0.00,,,0.00,Wunderground v.1.15,2013-03-22 23:40:00,
2013-03-22 19:50:00,39.2,15.1,29.73,WSW,252,5.0,5.0,37,0.00,,,0.00,Wunderground v.1.15,2013-03-22 23:50:00,
2013-03-22 20:00:00,39.6,12.1,29.74,NW,309,3.0,3.0,32,0.00,,,0.00,Wunderground v.1.15,2013-03-23 00:00:00,
2013-03-22 20:10:00,39.4,11.2,29.74,NW,310,4.0,4.0,31,0.00,,,0.00,Wunderground v.1.15,2013-03-23 00:10:00,
2013-03-22 20:19:00,39.3,11.1,29.74,WNW,302,4.0,4.0,31,0.00,,,0.00,Wunderground v.1.15,2013-03-23 00:19:00,
2013-03-22 20:30:00,39.0,13.0,29.74,WNW,288,4.0,4.0,34,0.00,,,0.00,Wunderground v.1.15,2013-03-23 00:30:00,
2013-03-22 20:40:00,38.6,11.9,29.75,West,277,7.0,19.0,33,0.00,,,0.00,Wunderground v.1.15,2013-03-23 00:40:00,
2013-03-22 20:50:00,38.1,12.2,29.75,West,276,6.0,6.0,34,0.00,,,0.00,Wunderground v.1.15,2013-03-23 00:50:00,
2013-03-22 21:00:00,37.4,11.5,29.75,West,275,4.0,4.0,34,0.00,,,0.00,Wunderground v.1.15,2013-03-23 01:00:00,
2013-03-22 21:10:00,37.1,11.9,29.75,West,275,4.0,19.0,35,0.00,,,0.00,Wunderground v.1.15,2013-03-23 01:10:00,
2013-03-22 21:20:00,36.4,12.6,29.75,West,275,4.0,4.0,37,0.00,,,0.00,Wunderground v.1.15,2013-03-23 01:20:00,
2013-03-22 21:30:00,35.9,12.7,29.75,West,275,4.0,4.0,38,0.00,,,0.00,Wunderground v.1.15,2013-03-23 01:30:00,
2013-03-22 21:40:00,35.0,12.5,29.75,West,275,3.0,19.0,39,0.00,,,0.00,Wunderground v.1.15,2013-03-23 01:40:00,
2013-03-22 21:50:00,34.6,13.3,29.75,West,275,3.0,19.0,41,0.00,,,0.00,Wunderground v.1.15,2013-03-23 01:50:00,
2013-03-22 22:00:00,35.1,12.6,29.76,West,275,5.0,5.0,39,0.00,,,0.00,Wunderground v.1.15,2013-03-23 02:00:00,
2013-03-22 22:10:00,35.3,11.6,29.75,West,275,4.0,19.0,37,0.00,,,0.00,Wunderground v.1.15,2013-03-23 02:10:00,
2013-03-22 22:20:00,35.4,11.1,29.76,West,275,3.0,3.0,36,0.00,,,0.00,Wunderground v.1.15,2013-03-23 02:20:00,
2013-03-22 22:30:00,35.3,11.6,29.76,West,275,1.0,19.0,37,0.00,,,0.00,Wunderground v.1.15,2013-03-23 02:30:00,
2013-03-22 22:40:00,35.2,12.1,29.76,West,278,3.0,19.0,38,0.00,,,0.00,Wunderground v.1.15,2013-03-23 02:40:00,
2013-03-22 22:50:00,35.1,12.0,29.76,NW,304,6.0,6.0,38,0.00,,,0.00,Wunderground v.1.15,2013-03-23 02:50:00,
2013-03-22 23:00:00,34.8,11.7,29.76,WNW,289,6.0,6.0,38,0.00,,,0.00,Wunderground v.1.15,2013-03-23 03:00:00,
2013-03-22 23:10:00,34.5,12.1,29.76,WNW,297,5.0,5.0,39,0.00,,,0.00,Wunderground v.1.15,2013-03-23 03:10:00,
2013-03-22 23:20:00,34.3,11.9,29.76,NW,307,4.0,4.0,39,0.00,,,0.00,Wunderground v.1.15,2013-03-23 03:20:00,
2013-03-22 23:30:00,34.3,11.3,29.76,NW,316,5.0,5.0,38,0.00,,,0.00,Wunderground v.1.15,2013-03-23 03:30:00,
2013-03-22 23:40:00,34.3,11.3,29.76,NW,319,6.0,19.0,38,0.00,,,0.00,Wunderground v.1.15,2013-03-23 03:40:00,
2013-03-22 23:50:00,34.2,10.6,29.76,NW,320,5.0,5.0,37,0.00,,,0.00,Wunderground v.1.15,2013-03-23 03:50:00,